createdAt,value
2023-03-20T00:01:40.779Z,9.00
2023-03-20T00:04:10.689Z,9.87
2023-03-20T00:06:37.819Z,12.63
2023-03-20T00:09:07.394Z,10.90
2023-03-20T00:11:39.450Z,8.80
2023-03-20T00:14:09.763Z,10.37
2023-03-20T00:16:38.841Z,9.30
2023-03-20T00:21:47.123Z,13.17
2023-03-20T00:24:16.082Z,11.70
2023-03-20T00:26:45.343Z,12.03
2023-03-20T00:29:21.751Z,13.37
2023-03-20T00:31:49.141Z,10.87
2023-03-20T00:34:18.854Z,12.40
2023-03-20T00:36:47.932Z,11.53
2023-03-20T00:41:56.902Z,12.10
2023-03-20T00:44:28.357Z,13.50
2023-03-20T00:47:00.001Z,12.17
2023-03-20T00:49:30.663Z,13.23
2023-03-20T00:52:01.990Z,18.63
2023-03-20T00:54:30.433Z,15.63
2023-03-20T00:57:02.251Z,19.37
2023-03-20T01:03:51.775Z,17.47
2023-03-20T01:06:19.478Z,17.80
2023-03-20T01:08:48.225Z,17.17
2023-03-20T01:11:21.826Z,18.27
2023-03-20T01:13:49.566Z,17.53
2023-03-20T01:16:21.815Z,15.53
2023-03-20T01:18:49.727Z,18.57
2023-03-20T01:26:36.028Z,17.80
2023-03-20T01:29:03.738Z,19.57
2023-03-20T01:31:31.688Z,23.47
2023-03-20T01:34:00.326Z,21.30
2023-03-20T01:36:32.160Z,26.97
2023-03-20T01:38:59.726Z,30.53
2023-03-20T01:41:30.339Z,30.67
2023-03-20T01:49:07.421Z,33.77
2023-03-20T01:51:36.784Z,34.83
2023-03-20T01:54:08.086Z,45.10
2023-03-20T01:56:39.059Z,37.60
2023-03-20T01:59:11.413Z,34.50
2023-03-20T02:01:41.058Z,44.30
2023-03-20T02:04:10.695Z,48.77
2023-03-20T02:11:41.854Z,51.23
2023-03-20T02:14:10.197Z,45.43
2023-03-20T02:16:41.328Z,61.77
2023-03-20T02:19:19.860Z,53.40
2023-03-20T02:22:19.950Z,59.43
2023-03-20T02:25:31.722Z,64.93
2023-03-20T02:33:46.139Z,53.40
2023-03-20T02:36:48.785Z,55.60
2023-03-20T02:39:43.360Z,63.47
2023-03-20T02:42:20.015Z,61.90
2023-03-20T02:44:56.255Z,57.83
2023-03-20T02:47:31.167Z,66.07
2023-03-20T02:55:28.876Z,75.13
2023-03-20T02:58:02.066Z,81.43
2023-03-20T03:00:35.131Z,75.03
2023-03-20T03:03:07.520Z,77.50
2023-03-20T03:05:41.224Z,78.77
2023-03-20T03:08:13.466Z,95.83
2023-03-20T03:13:55.055Z,100.23
2023-03-20T03:16:26.694Z,92.37
2023-03-20T03:19:07.742Z,137.67
2023-03-20T03:21:39.645Z,161.97
2023-03-20T03:24:21.754Z,133.60
2023-03-20T03:27:01.037Z,117.03
2023-03-20T03:29:35.448Z,315.87
2023-03-20T03:36:49.914Z,449.03
2023-03-20T03:39:23.837Z,579.83
2023-03-20T03:41:54.244Z,443.77
2023-03-20T03:44:28.530Z,586.10
2023-03-20T03:47:04.808Z,874.47
2023-03-20T03:49:36.638Z,608.33
2023-03-20T03:52:09.674Z,482.10
2023-03-20T03:59:17.485Z,908.13
2023-03-20T04:01:47.151Z,823.93
2023-03-20T04:04:16.036Z,799.77
2023-03-20T04:06:43.505Z,710.20
2023-03-20T04:09:11.052Z,851.60
2023-03-20T04:11:38.484Z,470.17
2023-03-20T04:14:05.868Z,579.87
2023-03-20T04:20:54.435Z,648.57
2023-03-20T04:23:23.415Z,500.83
2023-03-20T04:25:51.920Z,775.77
2023-03-20T04:28:19.341Z,610.10
2023-03-20T04:30:53.285Z,680.13
2023-03-20T04:33:33.212Z,1018.37
2023-03-20T04:36:01.905Z,720.97
2023-03-20T04:42:53.425Z,649.20
2023-03-20T04:45:20.774Z,541.07
2023-03-20T04:47:48.153Z,758.33
2023-03-20T04:50:15.486Z,506.67
2023-03-20T04:52:48.815Z,221.60
2023-03-20T04:55:16.434Z,485.40
2023-03-20T04:57:43.692Z,126.43
2023-03-20T05:05:16.943Z,595.77
2023-03-20T05:07:44.354Z,214.63
2023-03-20T05:10:12.274Z,210.73
2023-03-20T05:12:40.915Z,122.73
2023-03-20T05:15:11.838Z,130.80
2023-03-20T05:17:39.353Z,132.83
2023-03-20T05:20:08.350Z,110.93
2023-03-20T05:25:11.141Z,102.63
2023-03-20T05:27:38.473Z,95.83
2023-03-20T05:30:06.834Z,115.30
2023-03-20T05:32:36.696Z,99.90
2023-03-20T05:35:04.469Z,84.60
2023-03-20T05:37:31.406Z,97.70
2023-03-20T05:40:03.009Z,93.53
2023-03-20T05:47:09.860Z,77.50
2023-03-20T05:49:37.261Z,89.33
2023-03-20T05:52:04.758Z,97.97
2023-03-20T05:54:32.004Z,103.00
2023-03-20T05:56:59.825Z,92.87
2023-03-20T05:59:28.374Z,91.47
2023-03-20T06:01:55.754Z,88.27
2023-03-20T06:08:42.070Z,102.03
2023-03-20T06:11:11.233Z,101.60
2023-03-20T06:13:39.051Z,98.20
2023-03-20T06:16:08.000Z,102.10
2023-03-20T06:18:35.404Z,86.57
2023-03-20T06:21:05.691Z,102.23
2023-03-20T06:23:36.587Z,95.53
2023-03-20T06:30:35.250Z,93.80
2023-03-20T06:33:03.025Z,81.80
2023-03-20T06:35:31.209Z,75.10
2023-03-20T06:37:58.873Z,90.60
2023-03-20T06:40:27.008Z,79.10
2023-03-20T06:42:55.070Z,69.10
2023-03-20T06:45:23.584Z,76.63
2023-03-20T06:50:33.107Z,86.77
2023-03-20T06:53:00.419Z,104.33
2023-03-20T06:55:28.053Z,104.23
2023-03-20T06:57:55.613Z,122.10
2023-03-20T07:00:26.784Z,113.83
2023-03-20T07:02:53.962Z,115.87
2023-03-20T07:05:22.260Z,101.63
2023-03-20T07:12:43.644Z,126.90
2023-03-20T07:15:11.776Z,102.30
2023-03-20T07:17:39.243Z,104.40
2023-03-20T07:20:10.439Z,111.50
2023-03-20T07:22:38.871Z,116.43
2023-03-20T07:25:09.546Z,105.27
2023-03-20T07:27:37.652Z,94.83
2023-03-20T07:34:27.195Z,90.30
2023-03-20T07:36:54.414Z,88.10
2023-03-20T07:39:21.906Z,86.70
2023-03-20T07:41:49.327Z,92.33
2023-03-20T07:44:19.038Z,84.77
2023-03-20T07:46:47.159Z,72.40
2023-03-20T07:49:14.936Z,69.27
2023-03-20T07:54:38.003Z,72.27
2023-03-20T07:57:05.987Z,67.20
2023-03-20T07:59:33.313Z,62.13
2023-03-20T08:02:00.460Z,62.83
2023-03-20T08:04:27.503Z,58.87
2023-03-20T08:06:54.909Z,55.47
2023-03-20T08:09:22.720Z,57.23
2023-03-20T08:15:51.514Z,43.70
2023-03-20T08:18:20.019Z,38.63
2023-03-20T08:20:47.381Z,40.57
2023-03-20T08:23:14.933Z,32.57
2023-03-20T08:25:42.362Z,40.40
2023-03-20T08:28:12.594Z,37.67
2023-03-20T08:30:39.934Z,37.00
2023-03-20T08:37:49.247Z,39.10
2023-03-20T08:40:16.710Z,36.13
2023-03-20T08:42:44.265Z,37.90
2023-03-20T08:45:13.009Z,39.80
2023-03-20T08:47:40.719Z,38.10
2023-03-20T08:50:09.545Z,47.93
2023-03-20T08:52:36.938Z,36.63
2023-03-20T09:00:01.596Z,35.90
2023-03-20T09:02:28.745Z,43.17
2023-03-20T09:04:55.982Z,37.43
2023-03-20T09:07:26.188Z,30.43
2023-03-20T09:09:55.627Z,27.73
2023-03-20T09:12:25.055Z,27.23
2023-03-20T09:18:14.912Z,27.50
2023-03-20T09:20:42.397Z,28.87
2023-03-20T09:23:11.952Z,27.27
2023-03-20T09:25:39.148Z,24.07
2023-03-20T09:28:07.795Z,30.53
2023-03-20T09:30:38.570Z,31.63
2023-03-20T09:33:18.256Z,29.93
2023-03-20T09:40:31.919Z,22.10
2023-03-20T09:43:06.738Z,19.23
2023-03-20T09:45:51.092Z,23.20
2023-03-20T09:48:25.884Z,24.73
2023-03-20T09:51:01.301Z,29.23
2023-03-20T09:53:32.383Z,26.43
2023-03-20T10:01:17.016Z,21.23
2023-03-20T10:03:51.156Z,23.73
2023-03-20T10:06:18.784Z,24.00
2023-03-20T10:08:47.732Z,20.60
2023-03-20T10:11:58.759Z,20.03
2023-03-20T10:14:33.916Z,20.03
2023-03-20T10:17:15.138Z,16.10
2023-03-20T10:25:35.215Z,17.17
2023-03-20T10:28:08.483Z,18.70
2023-03-20T10:30:52.546Z,14.03
2023-03-20T10:33:36.077Z,17.07
2023-03-20T10:36:17.148Z,16.70
2023-03-20T10:38:52.803Z,16.30
2023-03-20T10:45:24.009Z,16.93
2023-03-20T10:47:54.778Z,22.80
2023-03-20T10:50:26.995Z,20.30
2023-03-20T10:52:57.074Z,17.70
2023-03-20T10:55:27.631Z,20.83
2023-03-20T10:58:00.633Z,18.87
2023-03-20T11:03:23.208Z,15.53
2023-03-20T11:06:09.421Z,17.57
2023-03-20T11:08:40.547Z,19.33
2023-03-20T11:11:08.393Z,14.57
2023-03-20T11:13:41.544Z,18.37
2023-03-20T11:16:26.378Z,15.30
2023-03-20T11:18:57.216Z,21.63
2023-03-20T11:26:40.713Z,33.27
2023-03-20T11:29:19.209Z,13.27
2023-03-20T11:31:47.168Z,14.37
2023-03-20T11:34:26.898Z,14.53
2023-03-20T11:37:09.319Z,12.83
2023-03-20T11:39:42.803Z,11.23
2023-03-20T11:42:24.784Z,12.97
2023-03-20T11:50:48.553Z,13.13
2023-03-20T11:53:24.324Z,5.17
2023-03-20T11:56:10.570Z,9.83
2023-03-20T11:58:40.563Z,7.60
2023-03-20T12:01:15.612Z,13.67
2023-03-20T12:03:47.821Z,11.30
2023-03-20T12:06:18.349Z,8.63
2023-03-20T12:11:50.790Z,8.80
2023-03-20T12:14:27.831Z,5.33
2023-03-20T12:17:05.223Z,8.23
2023-03-20T12:19:34.581Z,5.80
2023-03-20T12:22:11.076Z,7.23
2023-03-20T12:24:48.056Z,6.07
2023-03-20T12:32:32.872Z,6.87
2023-03-20T12:35:16.073Z,5.87
2023-03-20T12:37:47.286Z,5.67
2023-03-20T12:40:22.348Z,5.37
2023-03-20T12:43:05.059Z,6.67
2023-03-20T12:45:40.126Z,5.80
2023-03-20T12:53:54.982Z,4.80
2023-03-20T12:56:43.512Z,5.57
2023-03-20T12:59:20.005Z,4.60
2023-03-20T13:01:52.968Z,6.73
2023-03-20T13:04:47.199Z,4.30
2023-03-20T13:07:19.983Z,5.03
2023-03-20T13:12:44.515Z,6.40
2023-03-20T13:15:23.493Z,7.70
2023-03-20T13:17:56.156Z,4.50
2023-03-20T13:20:37.250Z,6.03
2023-03-20T13:23:20.821Z,8.87
2023-03-20T13:26:01.033Z,7.60
2023-03-20T13:31:30.362Z,6.77
2023-03-20T13:34:06.403Z,3.00
2023-03-20T13:36:50.159Z,3.37
2023-03-20T13:39:22.687Z,3.73
2023-03-20T13:41:51.905Z,4.63
2023-03-20T13:44:22.560Z,6.13
2023-03-20T13:46:56.294Z,4.67
2023-03-20T13:52:15.181Z,5.40
2023-03-20T13:55:01.986Z,3.73
2023-03-20T13:57:47.200Z,3.43
2023-03-20T14:00:25.615Z,7.13
2023-03-20T14:03:12.627Z,2.77
2023-03-20T14:05:48.121Z,5.63
2023-03-20T14:13:33.001Z,2.87
2023-03-20T14:16:03.892Z,3.00
2023-03-20T14:18:33.090Z,3.30
2023-03-20T14:21:05.248Z,6.13
2023-03-20T14:23:38.108Z,3.73
2023-03-20T14:26:13.719Z,4.60
2023-03-20T14:36:32.221Z,3.93
2023-03-20T14:39:12.187Z,3.57
2023-03-20T14:41:57.979Z,3.90
2023-03-20T14:44:36.604Z,2.80
2023-03-20T14:47:11.882Z,2.57
2023-03-20T14:49:52.970Z,2.13
2023-03-20T14:56:08.141Z,1.50
2023-03-20T14:58:57.391Z,9.77
2023-03-20T15:01:47.985Z,5.73
2023-03-20T15:04:36.647Z,1.97
2023-03-20T15:07:11.311Z,2.37
2023-03-20T15:09:44.865Z,3.90
2023-03-20T15:12:17.928Z,3.93
2023-03-20T15:20:46.722Z,3.40
2023-03-20T15:23:22.439Z,2.93
2023-03-20T15:25:51.038Z,3.00
2023-03-20T15:28:23.190Z,4.13
2023-03-20T15:30:53.163Z,3.67
2023-03-20T15:33:29.491Z,2.37
2023-03-20T15:36:09.062Z,4.73
2023-03-20T15:43:55.842Z,2.80
2023-03-20T15:46:30.536Z,4.27
2023-03-20T15:49:00.425Z,2.83
2023-03-20T15:51:29.290Z,7.10
2023-03-20T15:53:59.608Z,6.10
2023-03-20T15:56:28.898Z,8.77
2023-03-20T15:58:58.086Z,1.90
2023-03-20T16:01:30.661Z,4.07
2023-03-20T16:08:28.507Z,4.87
2023-03-20T16:11:00.212Z,4.83
2023-03-20T16:13:32.406Z,2.07
2023-03-20T16:16:06.020Z,5.73
2023-03-20T16:18:39.662Z,8.90
2023-03-20T16:21:17.883Z,5.07
2023-03-20T16:23:55.640Z,3.23
2023-03-20T16:31:25.246Z,4.73
2023-03-20T16:33:53.931Z,5.83
2023-03-20T16:36:29.213Z,3.33
2023-03-20T16:39:01.463Z,4.10
2023-03-20T16:41:35.315Z,2.97
2023-03-20T16:44:07.741Z,6.17
2023-03-20T16:46:55.546Z,4.30
2023-03-20T16:54:23.490Z,3.87
2023-03-20T16:57:00.159Z,3.70
2023-03-20T16:59:31.871Z,6.00
2023-03-20T17:02:01.171Z,4.07
2023-03-20T17:04:34.363Z,5.23
2023-03-20T17:07:08.209Z,4.87
2023-03-20T17:14:45.287Z,7.97
2023-03-20T17:17:18.935Z,3.70
2023-03-20T17:19:50.107Z,3.80
2023-03-20T17:22:20.538Z,1.87
2023-03-20T17:24:50.940Z,4.77
2023-03-20T17:27:20.369Z,5.27
2023-03-20T17:29:53.345Z,4.40
2023-03-20T17:36:57.091Z,4.90
2023-03-20T17:39:24.606Z,5.97
2023-03-20T17:41:54.057Z,4.77
2023-03-20T17:44:25.205Z,4.87
2023-03-20T17:47:00.724Z,3.80
2023-03-20T17:49:30.962Z,3.47
2023-03-20T17:52:04.797Z,8.53
2023-03-20T17:59:10.791Z,4.60
2023-03-20T18:01:41.005Z,6.50
2023-03-20T18:04:09.170Z,4.17
2023-03-20T18:06:37.383Z,8.43
2023-03-20T18:09:15.264Z,4.30
2023-03-20T18:11:45.832Z,6.50
2023-03-20T18:14:21.388Z,5.67
2023-03-20T18:21:46.928Z,3.60
2023-03-20T18:24:16.025Z,8.73
2023-03-20T18:26:47.781Z,6.60
2023-03-20T18:29:16.354Z,10.30
2023-03-20T18:31:47.038Z,6.13
2023-03-20T18:34:18.275Z,3.27
2023-03-20T18:36:47.462Z,6.30
2023-03-20T18:46:42.769Z,4.80
2023-03-20T18:49:15.591Z,4.27
2023-03-20T18:51:45.450Z,5.83
2023-03-20T18:54:16.959Z,3.63
2023-03-20T18:56:44.425Z,4.23
2023-03-20T18:59:15.995Z,4.50
2023-03-20T19:05:03.269Z,7.73
2023-03-20T19:07:35.361Z,3.13
2023-03-20T19:10:22.982Z,3.97
2023-03-20T19:12:53.299Z,11.13
2023-03-20T19:15:37.571Z,5.43
2023-03-20T19:18:23.030Z,7.20
2023-03-20T19:20:55.920Z,6.90
2023-03-20T19:23:29.254Z,7.03
2023-03-20T19:31:35.257Z,4.00
2023-03-20T19:34:03.810Z,8.17
2023-03-20T19:36:32.981Z,11.83
2023-03-20T19:39:04.711Z,3.87
2023-03-20T19:41:34.447Z,5.27
2023-03-20T19:44:03.884Z,5.50
2023-03-20T19:49:30.409Z,7.47
2023-03-20T19:52:00.943Z,9.10
2023-03-20T19:54:29.063Z,6.87
2023-03-20T19:57:00.030Z,6.13
2023-03-20T19:59:29.305Z,3.40
2023-03-20T20:01:58.233Z,5.93
2023-03-20T20:04:29.557Z,5.67
2023-03-20T20:10:05.936Z,4.27
2023-03-20T20:12:34.668Z,12.10
2023-03-20T20:15:02.356Z,6.17
2023-03-20T20:17:30.574Z,3.50
2023-03-20T20:19:58.221Z,6.50
2023-03-20T20:22:27.100Z,6.67
2023-03-20T20:24:55.562Z,6.43
2023-03-20T20:32:07.555Z,5.67
2023-03-20T20:40:18.910Z,11.03
2023-03-20T20:42:49.061Z,19.73
2023-03-20T20:45:22.208Z,5.57
2023-03-20T20:47:52.618Z,5.03
2023-03-20T20:54:23.138Z,8.33
2023-03-20T20:56:50.361Z,6.83
2023-03-20T20:59:18.174Z,7.13
2023-03-20T21:01:48.689Z,3.73
2023-03-20T21:04:16.941Z,6.90
2023-03-20T21:07:09.352Z,7.03
2023-03-20T21:09:39.612Z,11.63
2023-03-20T21:14:57.102Z,6.87
2023-03-20T21:17:28.213Z,4.50
2023-03-20T21:19:59.007Z,6.47
2023-03-20T21:22:26.801Z,5.57
2023-03-20T21:25:10.997Z,5.90
2023-03-20T21:27:42.027Z,5.43
2023-03-20T21:30:12.105Z,3.77
2023-03-20T21:38:30.114Z,9.47
2023-03-20T21:40:08.396Z,9.20
2023-03-20T21:42:36.915Z,7.40
2023-03-20T21:48:30.658Z,7.00
2023-03-20T21:51:26.409Z,4.47
2023-03-20T21:54:46.098Z,6.60
2023-03-20T22:04:06.164Z,7.23
2023-03-20T22:23:54.902Z,4.67
2023-03-20T22:26:58.376Z,4.67
2023-03-20T22:34:54.336Z,3.77
2023-03-20T22:45:04.271Z,9.50
2023-03-20T22:47:32.581Z,6.87
2023-03-20T22:50:00.004Z,4.50
2023-03-20T22:52:45.522Z,8.47
2023-03-20T22:55:15.854Z,7.30
2023-03-20T22:57:56.200Z,10.03
2023-03-20T23:07:14.022Z,5.47
2023-03-20T23:09:47.534Z,9.07
2023-03-20T23:12:17.964Z,5.70
2023-03-20T23:14:46.284Z,7.80
2023-03-20T23:17:14.116Z,7.73
2023-03-20T23:19:47.970Z,11.27
2023-03-20T23:22:19.903Z,7.07
2023-03-20T23:29:16.153Z,12.47
2023-03-20T23:31:43.538Z,10.00
2023-03-20T23:34:10.852Z,7.50
2023-03-20T23:36:38.600Z,6.23
2023-03-20T23:39:06.283Z,9.27
2023-03-20T23:41:57.962Z,9.53
2023-03-20T23:47:20.381Z,8.33
2023-03-20T23:49:51.433Z,6.53
2023-03-20T23:52:18.532Z,7.87
2023-03-20T23:54:47.394Z,4.13
2023-03-20T23:57:15.271Z,5.37
2023-03-20T23:59:42.249Z,5.77
